createdAt,value
2023-01-02T00:03:08.140Z,13.73
2023-01-02T00:08:09.669Z,13.69
2023-01-02T00:13:11.323Z,13.64
2023-01-02T00:18:14.424Z,13.57
2023-01-02T00:23:15.823Z,13.56
2023-01-02T00:28:19.738Z,13.52
2023-01-02T00:33:22.621Z,13.45
2023-01-02T00:38:24.088Z,13.46
2023-01-02T00:43:25.633Z,13.46
2023-01-02T00:48:26.999Z,13.44
2023-01-02T00:53:28.409Z,13.41
2023-01-02T00:58:29.885Z,13.42
2023-01-02T01:03:31.600Z,13.33
2023-01-02T01:08:34.941Z,13.30
2023-01-02T01:13:38.839Z,13.33
2023-01-02T01:18:40.532Z,13.36
2023-01-02T01:23:42.370Z,13.35
2023-01-02T01:28:44.730Z,13.37
2023-01-02T01:33:47.107Z,13.41
2023-01-02T01:38:48.727Z,13.49
2023-01-02T01:43:54.147Z,13.47
2023-01-02T01:49:04.809Z,13.39
2023-01-02T01:54:10.439Z,13.41
2023-01-02T01:59:12.318Z,13.39
2023-01-02T02:04:14.167Z,13.40
2023-01-02T02:09:19.126Z,13.38
2023-01-02T02:14:20.545Z,13.34
2023-01-02T02:20:02.903Z,13.30
2023-01-02T02:25:47.646Z,13.29
2023-01-02T02:30:55.602Z,13.23
2023-01-02T02:36:29.281Z,13.14
2023-01-02T02:41:45.815Z,13.09
2023-01-02T02:47:23.365Z,13.11
2023-01-02T02:52:39.644Z,13.16
2023-01-02T02:57:44.743Z,13.11
2023-01-02T03:02:46.891Z,13.16
2023-01-02T03:08:17.869Z,13.14
2023-01-02T03:13:19.255Z,13.17
2023-01-02T03:18:38.582Z,13.21
2023-01-02T03:23:50.937Z,13.20
2023-01-02T03:28:58.832Z,13.13
2023-01-02T03:34:08.270Z,13.08
2023-01-02T03:39:15.414Z,13.08
2023-01-02T03:44:17.375Z,13.14
2023-01-02T03:49:27.363Z,13.11
2023-01-02T03:54:30.018Z,13.13
2023-01-02T03:59:46.185Z,13.05
2023-01-02T04:05:17.241Z,13.00
2023-01-02T04:10:22.697Z,12.88
2023-01-02T04:15:27.166Z,12.85
2023-01-02T04:20:33.591Z,12.82
2023-01-02T04:25:47.518Z,12.76
2023-01-02T04:30:57.097Z,12.80
2023-01-02T04:35:58.503Z,12.81
2023-01-02T04:41:02.965Z,12.85
2023-01-02T04:46:12.294Z,12.86
2023-01-02T04:51:13.977Z,12.89
2023-01-02T04:56:17.656Z,12.89
2023-01-02T05:01:21.752Z,12.87
2023-01-02T05:06:23.305Z,12.88
2023-01-02T05:11:24.685Z,12.90
2023-01-02T05:16:26.070Z,12.93
2023-01-02T05:21:46.229Z,12.89
2023-01-02T05:26:47.681Z,12.83
2023-01-02T05:31:51.965Z,12.86
2023-01-02T05:36:53.508Z,12.91
2023-01-02T05:41:55.236Z,12.90
2023-01-02T05:46:58.191Z,12.89
2023-01-02T05:51:59.692Z,12.89
2023-01-02T05:57:01.236Z,12.93
2023-01-02T06:02:02.718Z,12.96
2023-01-02T06:07:05.488Z,12.94
2023-01-02T06:12:07.045Z,12.94
2023-01-02T06:17:09.070Z,12.98
2023-01-02T06:22:10.490Z,13.06
2023-01-02T06:27:11.797Z,13.09
2023-01-02T06:32:13.235Z,13.08
2023-01-02T06:37:14.651Z,13.11
2023-01-02T06:42:16.447Z,13.11
2023-01-02T06:47:18.035Z,13.18
2023-01-02T06:52:19.449Z,13.16
2023-01-02T06:57:20.866Z,13.16
2023-01-02T07:02:23.649Z,13.15
2023-01-02T07:07:25.143Z,13.16
2023-01-02T07:12:26.538Z,13.17
2023-01-02T07:17:27.881Z,13.17
2023-01-02T07:22:29.341Z,13.16
2023-01-02T07:27:31.435Z,13.16
2023-01-02T07:32:33.076Z,13.17
2023-01-02T07:37:34.796Z,13.18
2023-01-02T07:42:36.197Z,13.27
2023-01-02T07:47:37.566Z,13.27
2023-01-02T07:52:39.175Z,13.31
2023-01-02T07:57:40.619Z,13.37
2023-01-02T08:02:42.161Z,13.61
2023-01-02T08:07:45.272Z,13.69
2023-01-02T08:12:46.905Z,13.69
2023-01-02T08:17:48.309Z,13.66
2023-01-02T08:22:49.714Z,13.68
2023-01-02T08:27:51.102Z,13.71
2023-01-02T08:32:52.413Z,13.74
2023-01-02T08:37:53.950Z,13.78
2023-01-02T08:42:55.421Z,13.87
2023-01-02T08:47:56.853Z,13.86
2023-01-02T08:52:58.355Z,13.89
2023-01-02T08:57:59.873Z,13.91
2023-01-02T09:03:01.481Z,13.94
2023-01-02T09:08:03.408Z,13.97
2023-01-02T09:13:04.974Z,14.01
2023-01-02T09:18:06.403Z,14.08
2023-01-02T09:23:07.728Z,14.10
2023-01-02T09:28:09.093Z,14.17
2023-01-02T09:33:10.809Z,14.16
2023-01-02T09:38:12.288Z,14.24
2023-01-02T09:43:17.837Z,14.25
2023-01-02T09:48:20.758Z,14.23
2023-01-02T09:53:22.503Z,14.21
2023-01-02T09:58:43.234Z,14.22
2023-01-02T10:04:11.960Z,14.24
2023-01-02T10:09:34.456Z,14.31
2023-01-02T10:14:53.453Z,14.35
2023-01-02T10:20:01.622Z,14.27
2023-01-02T10:25:35.880Z,14.21
2023-01-02T10:30:43.693Z,14.19
2023-01-02T10:35:53.205Z,14.17
2023-01-02T10:40:54.636Z,14.11
2023-01-02T10:45:56.264Z,14.11
2023-01-02T10:51:02.424Z,14.03
2023-01-02T10:56:16.385Z,14.03
2023-01-02T11:01:21.811Z,14.01
2023-01-02T11:06:37.354Z,14.03
2023-01-02T11:11:52.833Z,14.02
2023-01-02T11:17:01.152Z,13.95
2023-01-02T11:22:03.371Z,13.91
2023-01-02T11:27:04.984Z,13.96
2023-01-02T11:32:06.938Z,13.92
2023-01-02T11:37:11.331Z,13.99
2023-01-02T11:42:40.770Z,13.88
2023-01-02T11:47:44.334Z,13.72
2023-01-02T11:52:55.433Z,13.54
2023-01-02T11:58:05.887Z,13.43
2023-01-02T12:03:18.832Z,13.42
2023-01-02T12:08:50.832Z,13.39
2023-01-02T12:14:31.215Z,13.45
2023-01-02T12:20:05.653Z,13.30
2023-01-02T12:25:23.309Z,13.25
2023-01-02T12:30:24.983Z,13.16
2023-01-02T12:35:52.747Z,13.17
2023-01-02T12:41:19.345Z,13.19
2023-01-02T12:46:44.298Z,13.22
2023-01-02T12:52:11.819Z,13.21
2023-01-02T12:57:39.294Z,13.23
2023-01-02T13:03:22.644Z,13.24
2023-01-02T13:08:30.346Z,13.15
2023-01-02T13:13:35.861Z,13.11
2023-01-02T13:19:00.219Z,13.07
2023-01-02T13:24:03.511Z,13.07
2023-01-02T13:29:08.158Z,13.11
2023-01-02T13:34:24.266Z,13.02
2023-01-02T13:39:57.559Z,13.01
2023-01-02T13:45:00.897Z,12.92
2023-01-02T13:50:22.410Z,13.05
2023-01-02T13:55:33.041Z,13.07
2023-01-02T14:00:37.686Z,13.04
2023-01-02T14:06:05.605Z,13.07
2023-01-02T14:11:16.611Z,13.09
2023-01-02T14:16:45.894Z,12.91
2023-01-02T14:22:03.817Z,12.96
2023-01-02T14:27:17.669Z,12.98
2023-01-02T14:32:34.382Z,13.02
2023-01-02T14:37:49.636Z,13.01
2023-01-02T14:43:30.919Z,13.08
2023-01-02T14:48:45.226Z,12.99
2023-01-02T14:54:09.733Z,12.91
2023-01-02T14:59:17.410Z,12.82
2023-01-02T15:04:42.142Z,12.69
2023-01-02T15:09:45.381Z,12.54
2023-01-02T15:14:47.037Z,12.52
2023-01-02T15:19:49.399Z,12.61
2023-01-02T15:24:53.890Z,12.58
2023-01-02T15:29:56.487Z,12.45
2023-01-02T15:35:12.892Z,12.38
2023-01-02T15:40:42.704Z,12.29
2023-01-02T15:45:47.354Z,12.12
2023-01-02T15:50:51.968Z,12.08
2023-01-02T15:55:54.248Z,11.99
2023-01-02T16:01:21.170Z,11.93
2023-01-02T16:06:28.840Z,11.87
2023-01-02T16:11:32.145Z,11.83
2023-01-02T16:17:18.848Z,11.76
2023-01-02T16:22:25.145Z,11.74
2023-01-02T16:27:46.430Z,11.82
2023-01-02T16:32:48.959Z,11.79
2023-01-02T16:37:56.629Z,11.80
2023-01-02T16:43:06.926Z,11.84
2023-01-02T16:48:14.616Z,11.75
2023-01-02T16:53:19.853Z,11.78
2023-01-02T16:58:22.361Z,11.52
2023-01-02T17:03:26.710Z,11.44
2023-01-02T17:08:28.632Z,11.43
2023-01-02T17:13:30.558Z,11.58
2023-01-02T17:18:31.896Z,11.49
2023-01-02T17:23:33.471Z,11.41
2023-01-02T17:28:34.946Z,11.21
2023-01-02T17:33:37.747Z,11.17
2023-01-02T17:38:39.072Z,11.12
2023-01-02T17:43:40.690Z,11.21
2023-01-02T17:49:02.725Z,11.22
2023-01-02T17:54:04.823Z,11.16
2023-01-02T17:59:06.655Z,11.28
2023-01-02T18:04:08.429Z,11.36
2023-01-02T18:09:10.220Z,11.18
2023-01-02T18:14:18.836Z,11.00
2023-01-02T18:19:24.878Z,11.02
2023-01-02T18:24:30.786Z,11.01
2023-01-02T18:29:32.197Z,10.99
2023-01-02T18:34:53.478Z,11.00
2023-01-02T18:40:00.630Z,11.03
2023-01-02T18:45:03.301Z,11.09
2023-01-02T18:50:35.647Z,10.96
2023-01-02T18:55:40.504Z,10.81
2023-01-02T19:00:42.481Z,10.78
2023-01-02T19:05:45.869Z,10.79
2023-01-02T19:10:53.298Z,10.69
2023-01-02T19:15:57.773Z,10.53
2023-01-02T19:21:08.607Z,10.56
2023-01-02T19:26:19.030Z,10.50
2023-01-02T19:31:20.992Z,10.44
2023-01-02T19:36:31.306Z,10.39
2023-01-02T19:41:51.239Z,10.31
2023-01-02T19:46:52.783Z,10.36
2023-01-02T19:51:54.443Z,10.49
2023-01-02T19:56:56.133Z,10.32
2023-01-02T20:01:57.996Z,10.29
2023-01-02T20:06:59.642Z,10.33
2023-01-02T20:12:20.156Z,10.32
2023-01-02T20:17:21.728Z,10.36
2023-01-02T20:22:23.330Z,10.29
2023-01-02T20:27:25.981Z,10.27
2023-01-02T20:32:27.655Z,10.23
2023-01-02T20:37:30.916Z,10.23
2023-01-02T20:42:33.148Z,10.26
2023-01-02T20:47:36.632Z,10.27
2023-01-02T20:52:38.152Z,10.24
2023-01-02T20:57:39.656Z,10.12
2023-01-02T21:02:41.186Z,10.07
2023-01-02T21:07:42.716Z,9.99
2023-01-02T21:13:02.895Z,9.90
2023-01-02T21:18:04.447Z,9.79
2023-01-02T21:23:06.065Z,9.76
2023-01-02T21:28:07.867Z,9.75
2023-01-02T21:33:10.874Z,9.75
2023-01-02T21:38:13.280Z,9.69
2023-01-02T21:43:14.866Z,9.50
2023-01-02T21:48:16.599Z,9.47
2023-01-02T21:53:18.111Z,9.52
2023-01-02T21:58:19.493Z,9.46
2023-01-02T22:03:21.116Z,9.45
2023-01-02T22:08:22.944Z,9.39
2023-01-02T22:13:24.383Z,9.40
2023-01-02T22:18:25.876Z,9.41
2023-01-02T22:23:27.270Z,9.35
2023-01-02T22:28:30.043Z,9.40
2023-01-02T22:33:31.573Z,9.43
2023-01-02T22:38:37.398Z,9.40
2023-01-02T22:43:45.754Z,9.33
2023-01-02T22:48:47.110Z,9.27
2023-01-02T22:53:48.515Z,9.31
2023-01-02T22:58:50.776Z,9.47
2023-01-02T23:03:52.639Z,9.63
2023-01-02T23:08:54.180Z,9.65
2023-01-02T23:13:56.887Z,9.55
2023-01-02T23:19:19.060Z,9.54
2023-01-02T23:24:30.234Z,9.61
2023-01-02T23:29:32.674Z,9.55
2023-01-02T23:34:34.043Z,9.55
2023-01-02T23:39:35.673Z,9.53
2023-01-02T23:44:38.411Z,9.51
2023-01-02T23:49:39.928Z,9.58
2023-01-02T23:54:41.552Z,9.65
2023-01-02T23:59:43.337Z,9.62
